Terminal Aerodrome Forecast
Issued by NWS

Home | Current Version | Previous Version | Text Only | Print | Product List | Glossary On
Versions: 1 2 3 4 5 6 7 8 9 10 11 12 13 14 15
189
FTUS44 KLZK 261120
TAFADF
TAF
KADF 261120Z 2612/2712 16004KT 3SM BR BKN012 OVC020
      TEMPO 2612/2614 1SM BR BKN005 OVC020
     FM261500 17008KT P6SM BKN020 BKN250
     FM261800 18010KT P6SM VCTS SCT030CB BKN100
     FM270600 18006KT P6SM VCTS BKN020 OVC030CB PROB30 2706/2712
      TSRA BKN010CB
      AMD NOT SKED=

USA.gov is the U.S. government's official web portal to all federal, state and local government web resources and services.